sensor_id;sensor_type;location;lat;lon;timestamp;P1;durP1;ratioP1;P2;durP2;ratioP2
62798;SDS011;48842;51.046;13.796;2023-04-25T00:02:06;2.90;;;2.50;;
62798;SDS011;48842;51.046;13.796;2023-04-25T00:04:32;3.00;;;2.77;;
62798;SDS011;48842;51.046;13.796;2023-04-25T00:06:58;4.37;;;3.50;;
62798;SDS011;48842;51.046;13.796;2023-04-25T00:09:26;3.03;;;2.83;;
62798;SDS011;48842;51.046;13.796;2023-04-25T00:11:52;2.63;;;2.43;;
62798;SDS011;48842;51.046;13.796;2023-04-25T00:14:17;3.27;;;3.00;;
62798;SDS011;48842;51.046;13.796;2023-04-25T00:16:43;3.00;;;2.70;;
62798;SDS011;48842;51.046;13.796;2023-04-25T00:19:09;4.20;;;3.40;;
62798;SDS011;48842;51.046;13.796;2023-04-25T00:21:34;3.13;;;2.90;;
62798;SDS011;48842;51.046;13.796;2023-04-25T00:24:00;3.00;;;2.70;;
62798;SDS011;48842;51.046;13.796;2023-04-25T00:26:26;2.97;;;2.60;;
62798;SDS011;48842;51.046;13.796;2023-04-25T00:28:52;8.30;;;2.83;;
62798;SDS011;48842;51.046;13.796;2023-04-25T00:31:17;3.97;;;2.67;;
62798;SDS011;48842;51.046;13.796;2023-04-25T00:33:42;2.60;;;2.30;;
62798;SDS011;48842;51.046;13.796;2023-04-25T00:36:08;4.03;;;2.97;;
62798;SDS011;48842;51.046;13.796;2023-04-25T00:38:34;2.87;;;2.60;;
62798;SDS011;48842;51.046;13.796;2023-04-25T00:40:59;2.70;;;2.53;;
62798;SDS011;48842;51.046;13.796;2023-04-25T00:43:25;3.00;;;2.80;;
62798;SDS011;48842;51.046;13.796;2023-04-25T00:45:51;2.70;;;2.50;;
62798;SDS011;48842;51.046;13.796;2023-04-25T00:48:17;3.60;;;3.30;;
62798;SDS011;48842;51.046;13.796;2023-04-25T00:50:45;6.60;;;2.80;;
62798;SDS011;48842;51.046;13.796;2023-04-25T00:53:17;4.33;;;3.40;;
62798;SDS011;48842;51.046;13.796;2023-04-25T00:55:42;2.83;;;2.73;;
62798;SDS011;48842;51.046;13.796;2023-04-25T00:58:07;3.87;;;2.97;;
62798;SDS011;48842;51.046;13.796;2023-04-25T01:00:32;3.50;;;3.20;;
62798;SDS011;48842;51.046;13.796;2023-04-25T01:02:58;5.17;;;3.33;;
62798;SDS011;48842;51.046;13.796;2023-04-25T01:05:23;4.20;;;3.90;;
62798;SDS011;48842;51.046;13.796;2023-04-25T01:07:49;10.70;;;4.10;;
62798;SDS011;48842;51.046;13.796;2023-04-25T01:10:14;5.00;;;4.50;;
62798;SDS011;48842;51.046;13.796;2023-04-25T01:12:40;4.37;;;4.00;;
62798;SDS011;48842;51.046;13.796;2023-04-25T01:15:05;4.70;;;4.20;;
62798;SDS011;48842;51.046;13.796;2023-04-25T01:17:31;4.57;;;4.00;;
62798;SDS011;48842;51.046;13.796;2023-04-25T01:19:57;4.10;;;3.70;;
62798;SDS011;48842;51.046;13.796;2023-04-25T01:22:22;7.20;;;3.67;;
62798;SDS011;48842;51.046;13.796;2023-04-25T01:24:47;3.80;;;3.50;;
62798;SDS011;48842;51.046;13.796;2023-04-25T01:27:13;4.60;;;3.83;;
62798;SDS011;48842;51.046;13.796;2023-04-25T01:29:38;4.10;;;3.70;;
62798;SDS011;48842;51.046;13.796;2023-04-25T01:32:04;4.00;;;3.70;;
62798;SDS011;48842;51.046;13.796;2023-04-25T01:34:30;4.50;;;4.07;;
62798;SDS011;48842;51.046;13.796;2023-04-25T01:36:56;3.90;;;3.50;;
62798;SDS011;48842;51.046;13.796;2023-04-25T01:39:23;4.10;;;3.80;;
62798;SDS011;48842;51.046;13.796;2023-04-25T01:41:49;4.73;;;3.93;;
62798;SDS011;48842;51.046;13.796;2023-04-25T01:44:15;5.10;;;4.03;;
62798;SDS011;48842;51.046;13.796;2023-04-25T01:46:40;5.63;;;4.17;;
62798;SDS011;48842;51.046;13.796;2023-04-25T01:49:05;4.53;;;4.20;;
62798;SDS011;48842;51.046;13.796;2023-04-25T01:51:31;5.13;;;4.33;;
62798;SDS011;48842;51.046;13.796;2023-04-25T01:53:57;6.03;;;4.47;;
62798;SDS011;48842;51.046;13.796;2023-04-25T01:56:23;7.30;;;4.47;;
62798;SDS011;48842;51.046;13.796;2023-04-25T01:58:48;5.80;;;4.30;;
62798;SDS011;48842;51.046;13.796;2023-04-25T02:01:13;6.33;;;4.27;;
62798;SDS011;48842;51.046;13.796;2023-04-25T02:03:39;6.17;;;4.40;;
62798;SDS011;48842;51.046;13.796;2023-04-25T02:06:04;5.00;;;4.50;;
62798;SDS011;48842;51.046;13.796;2023-04-25T02:08:30;4.47;;;4.00;;
62798;SDS011;48842;51.046;13.796;2023-04-25T02:10:56;4.40;;;4.00;;
62798;SDS011;48842;51.046;13.796;2023-04-25T02:13:21;7.00;;;4.10;;
62798;SDS011;48842;51.046;13.796;2023-04-25T02:15:46;6.47;;;4.20;;
62798;SDS011;48842;51.046;13.796;2023-04-25T02:18:12;3.77;;;3.47;;
62798;SDS011;48842;51.046;13.796;2023-04-25T02:20:37;6.10;;;4.13;;
62798;SDS011;48842;51.046;13.796;2023-04-25T02:23:02;6.77;;;4.33;;
62798;SDS011;48842;51.046;13.796;2023-04-25T02:25:28;5.10;;;3.87;;
62798;SDS011;48842;51.046;13.796;2023-04-25T02:27:53;4.57;;;3.60;;
62798;SDS011;48842;51.046;13.796;2023-04-25T02:30:19;5.43;;;4.40;;
62798;SDS011;48842;51.046;13.796;2023-04-25T02:32:45;4.30;;;3.90;;
62798;SDS011;48842;51.046;13.796;2023-04-25T02:35:10;4.90;;;3.93;;
62798;SDS011;48842;51.046;13.796;2023-04-25T02:37:36;4.53;;;4.20;;
62798;SDS011;48842;51.046;13.796;2023-04-25T02:40:03;4.27;;;3.87;;
62798;SDS011;48842;51.046;13.796;2023-04-25T02:42:29;4.27;;;3.90;;
62798;SDS011;48842;51.046;13.796;2023-04-25T02:44:54;5.27;;;4.77;;
62798;SDS011;48842;51.046;13.796;2023-04-25T02:47:20;6.13;;;4.57;;
62798;SDS011;48842;51.046;13.796;2023-04-25T02:49:45;6.70;;;4.63;;
62798;SDS011;48842;51.046;13.796;2023-04-25T02:52:11;10.90;;;4.97;;
62798;SDS011;48842;51.046;13.796;2023-04-25T02:54:36;6.60;;;4.87;;
62798;SDS011;48842;51.046;13.796;2023-04-25T02:57:02;5.70;;;4.10;;
62798;SDS011;48842;51.046;13.796;2023-04-25T02:59:28;6.50;;;5.10;;
62798;SDS011;48842;51.046;13.796;2023-04-25T03:01:53;4.83;;;3.93;;
62798;SDS011;48842;51.046;13.796;2023-04-25T03:04:18;7.93;;;4.60;;
62798;SDS011;48842;51.046;13.796;2023-04-25T03:06:44;4.40;;;3.93;;
62798;SDS011;48842;51.046;13.796;2023-04-25T03:09:09;5.83;;;4.40;;
62798;SDS011;48842;51.046;13.796;2023-04-25T03:11:36;5.37;;;4.07;;
62798;SDS011;48842;51.046;13.796;2023-04-25T03:14:03;6.30;;;4.20;;
62798;SDS011;48842;51.046;13.796;2023-04-25T03:16:28;5.03;;;4.60;;
62798;SDS011;48842;51.046;13.796;2023-04-25T03:18:53;5.10;;;4.67;;
62798;SDS011;48842;51.046;13.796;2023-04-25T03:21:18;5.70;;;4.77;;
62798;SDS011;48842;51.046;13.796;2023-04-25T03:23:44;4.97;;;4.47;;
62798;SDS011;48842;51.046;13.796;2023-04-25T03:26:09;7.30;;;3.97;;
62798;SDS011;48842;51.046;13.796;2023-04-25T03:28:34;7.47;;;4.50;;
62798;SDS011;48842;51.046;13.796;2023-04-25T03:30:59;5.27;;;4.73;;
62798;SDS011;48842;51.046;13.796;2023-04-25T03:33:25;6.33;;;4.47;;
62798;SDS011;48842;51.046;13.796;2023-04-25T03:35:50;4.70;;;4.23;;
62798;SDS011;48842;51.046;13.796;2023-04-25T03:38:16;6.83;;;4.27;;
62798;SDS011;48842;51.046;13.796;2023-04-25T03:40:41;7.60;;;4.80;;
62798;SDS011;48842;51.046;13.796;2023-04-25T03:43:07;9.37;;;4.80;;
62798;SDS011;48842;51.046;13.796;2023-04-25T03:45:33;5.60;;;4.43;;
62798;SDS011;48842;51.046;13.796;2023-04-25T03:47:58;6.27;;;5.00;;
62798;SDS011;48842;51.046;13.796;2023-04-25T03:50:23;8.63;;;4.70;;
62798;SDS011;48842;51.046;13.796;2023-04-25T03:52:48;9.83;;;5.50;;
62798;SDS011;48842;51.046;13.796;2023-04-25T03:55:14;8.40;;;5.70;;
62798;SDS011;48842;51.046;13.796;2023-04-25T03:57:39;8.43;;;4.90;;
62798;SDS011;48842;51.046;13.796;2023-04-25T04:00:04;11.13;;;4.60;;
62798;SDS011;48842;51.046;13.796;2023-04-25T04:02:31;7.80;;;4.67;;
62798;SDS011;48842;51.046;13.796;2023-04-25T04:04:58;7.77;;;5.30;;
62798;SDS011;48842;51.046;13.796;2023-04-25T04:07:23;5.27;;;4.00;;
62798;SDS011;48842;51.046;13.796;2023-04-25T04:09:48;10.33;;;5.40;;
62798;SDS011;48842;51.046;13.796;2023-04-25T04:12:13;7.47;;;5.83;;
62798;SDS011;48842;51.046;13.796;2023-04-25T04:14:39;8.63;;;5.80;;
62798;SDS011;48842;51.046;13.796;2023-04-25T04:17:05;6.23;;;5.63;;
62798;SDS011;48842;51.046;13.796;2023-04-25T04:19:30;10.47;;;6.60;;
62798;SDS011;48842;51.046;13.796;2023-04-25T04:21:56;13.90;;;6.47;;
62798;SDS011;48842;51.046;13.796;2023-04-25T04:24:21;6.30;;;5.23;;
62798;SDS011;48842;51.046;13.796;2023-04-25T04:26:46;7.03;;;5.60;;
62798;SDS011;48842;51.046;13.796;2023-04-25T04:29:11;7.37;;;5.20;;
62798;SDS011;48842;51.046;13.796;2023-04-25T04:31:45;9.83;;;5.50;;
62798;SDS011;48842;51.046;13.796;2023-04-25T04:34:10;6.20;;;5.60;;
62798;SDS011;48842;51.046;13.796;2023-04-25T04:36:36;8.10;;;5.90;;
62798;SDS011;48842;51.046;13.796;2023-04-25T04:39:01;11.30;;;5.73;;
62798;SDS011;48842;51.046;13.796;2023-04-25T04:41:28;8.73;;;5.57;;
62798;SDS011;48842;51.046;13.796;2023-04-25T04:43:53;9.47;;;6.20;;
62798;SDS011;48842;51.046;13.796;2023-04-25T04:46:20;7.00;;;5.53;;
62798;SDS011;48842;51.046;13.796;2023-04-25T04:48:46;6.80;;;6.10;;
62798;SDS011;48842;51.046;13.796;2023-04-25T04:51:12;6.47;;;5.60;;
62798;SDS011;48842;51.046;13.796;2023-04-25T04:53:37;9.73;;;5.23;;
62798;SDS011;48842;51.046;13.796;2023-04-25T04:56:02;9.73;;;5.90;;
62798;SDS011;48842;51.046;13.796;2023-04-25T04:58:28;8.90;;;5.70;;
62798;SDS011;48842;51.046;13.796;2023-04-25T05:00:54;9.03;;;5.60;;
62798;SDS011;48842;51.046;13.796;2023-04-25T05:03:20;9.23;;;6.27;;
62798;SDS011;48842;51.046;13.796;2023-04-25T05:05:45;8.87;;;5.40;;
62798;SDS011;48842;51.046;13.796;2023-04-25T05:08:10;8.20;;;6.17;;
62798;SDS011;48842;51.046;13.796;2023-04-25T05:10:36;13.97;;;6.63;;
62798;SDS011;48842;51.046;13.796;2023-04-25T05:13:01;8.50;;;6.00;;
62798;SDS011;48842;51.046;13.796;2023-04-25T05:15:26;9.60;;;6.40;;
62798;SDS011;48842;51.046;13.796;2023-04-25T05:17:52;7.00;;;5.63;;
62798;SDS011;48842;51.046;13.796;2023-04-25T05:20:17;9.00;;;5.80;;
62798;SDS011;48842;51.046;13.796;2023-04-25T05:22:43;15.00;;;5.80;;
62798;SDS011;48842;51.046;13.796;2023-04-25T05:25:09;6.10;;;5.50;;
62798;SDS011;48842;51.046;13.796;2023-04-25T05:27:34;6.93;;;5.73;;
62798;SDS011;48842;51.046;13.796;2023-04-25T05:30:00;5.57;;;5.17;;
62798;SDS011;48842;51.046;13.796;2023-04-25T05:32:25;8.40;;;5.40;;
62798;SDS011;48842;51.046;13.796;2023-04-25T05:34:51;9.40;;;6.20;;
62798;SDS011;48842;51.046;13.796;2023-04-25T05:37:16;8.30;;;5.63;;
62798;SDS011;48842;51.046;13.796;2023-04-25T05:39:42;12.90;;;6.70;;
62798;SDS011;48842;51.046;13.796;2023-04-25T05:42:07;9.23;;;6.57;;
62798;SDS011;48842;51.046;13.796;2023-04-25T05:44:32;7.20;;;5.90;;
62798;SDS011;48842;51.046;13.796;2023-04-25T05:46:58;6.10;;;5.17;;
62798;SDS011;48842;51.046;13.796;2023-04-25T05:49:23;7.83;;;5.43;;
62798;SDS011;48842;51.046;13.796;2023-04-25T05:51:48;10.90;;;5.70;;
62798;SDS011;48842;51.046;13.796;2023-04-25T05:54:13;8.40;;;5.37;;
62798;SDS011;48842;51.046;13.796;2023-04-25T05:56:39;11.63;;;5.80;;
62798;SDS011;48842;51.046;13.796;2023-04-25T05:59:05;10.43;;;5.70;;
62798;SDS011;48842;51.046;13.796;2023-04-25T06:01:31;9.37;;;6.13;;
62798;SDS011;48842;51.046;13.796;2023-04-25T06:03:56;14.93;;;7.53;;
62798;SDS011;48842;51.046;13.796;2023-04-25T06:06:21;12.73;;;6.03;;
62798;SDS011;48842;51.046;13.796;2023-04-25T06:08:46;9.10;;;6.20;;
62798;SDS011;48842;51.046;13.796;2023-04-25T06:11:12;7.37;;;5.37;;
62798;SDS011;48842;51.046;13.796;2023-04-25T06:13:37;10.60;;;6.07;;
62798;SDS011;48842;51.046;13.796;2023-04-25T06:16:02;9.57;;;6.17;;
62798;SDS011;48842;51.046;13.796;2023-04-25T06:18:27;16.63;;;6.80;;
62798;SDS011;48842;51.046;13.796;2023-04-25T06:20:53;15.30;;;5.67;;
62798;SDS011;48842;51.046;13.796;2023-04-25T06:23:18;6.13;;;5.53;;
62798;SDS011;48842;51.046;13.796;2023-04-25T06:25:43;8.93;;;6.23;;
62798;SDS011;48842;51.046;13.796;2023-04-25T06:28:08;7.90;;;5.93;;
62798;SDS011;48842;51.046;13.796;2023-04-25T06:30:34;10.17;;;5.67;;
62798;SDS011;48842;51.046;13.796;2023-04-25T06:32:59;12.90;;;6.00;;
62798;SDS011;48842;51.046;13.796;2023-04-25T06:35:24;8.77;;;6.13;;
62798;SDS011;48842;51.046;13.796;2023-04-25T06:37:49;12.43;;;6.63;;
62798;SDS011;48842;51.046;13.796;2023-04-25T06:40:14;8.83;;;6.00;;
62798;SDS011;48842;51.046;13.796;2023-04-25T06:42:42;17.20;;;6.90;;
62798;SDS011;48842;51.046;13.796;2023-04-25T06:45:07;10.50;;;6.90;;
62798;SDS011;48842;51.046;13.796;2023-04-25T06:47:33;6.60;;;5.90;;
62798;SDS011;48842;51.046;13.796;2023-04-25T06:49:58;8.83;;;6.33;;
62798;SDS011;48842;51.046;13.796;2023-04-25T06:52:23;9.00;;;5.97;;
62798;SDS011;48842;51.046;13.796;2023-04-25T06:54:48;10.20;;;5.80;;
62798;SDS011;48842;51.046;13.796;2023-04-25T06:57:13;7.37;;;5.27;;
62798;SDS011;48842;51.046;13.796;2023-04-25T06:59:39;8.07;;;5.83;;
62798;SDS011;48842;51.046;13.796;2023-04-25T07:02:05;10.10;;;5.27;;
62798;SDS011;48842;51.046;13.796;2023-04-25T07:04:30;13.27;;;5.50;;
62798;SDS011;48842;51.046;13.796;2023-04-25T07:06:56;11.23;;;5.63;;
62798;SDS011;48842;51.046;13.796;2023-04-25T07:09:21;16.40;;;6.83;;
62798;SDS011;48842;51.046;13.796;2023-04-25T07:11:47;6.17;;;5.20;;
62798;SDS011;48842;51.046;13.796;2023-04-25T07:14:12;10.63;;;6.03;;
62798;SDS011;48842;51.046;13.796;2023-04-25T07:16:37;13.20;;;6.63;;
62798;SDS011;48842;51.046;13.796;2023-04-25T07:19:03;10.40;;;7.50;;
62798;SDS011;48842;51.046;13.796;2023-04-25T07:21:28;9.77;;;6.73;;
62798;SDS011;48842;51.046;13.796;2023-04-25T07:23:53;13.23;;;5.90;;
62798;SDS011;48842;51.046;13.796;2023-04-25T07:26:18;7.90;;;4.80;;
62798;SDS011;48842;51.046;13.796;2023-04-25T07:28:44;12.23;;;7.00;;
62798;SDS011;48842;51.046;13.796;2023-04-25T07:31:09;6.40;;;5.80;;
62798;SDS011;48842;51.046;13.796;2023-04-25T07:33:34;8.67;;;6.17;;
62798;SDS011;48842;51.046;13.796;2023-04-25T07:36:00;19.83;;;11.67;;
62798;SDS011;48842;51.046;13.796;2023-04-25T07:38:25;6.70;;;5.23;;
62798;SDS011;48842;51.046;13.796;2023-04-25T07:40:50;7.97;;;5.03;;
62798;SDS011;48842;51.046;13.796;2023-04-25T07:43:16;16.07;;;5.27;;
62798;SDS011;48842;51.046;13.796;2023-04-25T07:45:45;7.30;;;6.17;;
62798;SDS011;48842;51.046;13.796;2023-04-25T07:48:11;8.97;;;5.87;;
62798;SDS011;48842;51.046;13.796;2023-04-25T07:50:42;14.90;;;7.70;;
62798;SDS011;48842;51.046;13.796;2023-04-25T07:53:07;8.03;;;5.60;;
62798;SDS011;48842;51.046;13.796;2023-04-25T07:55:32;13.20;;;6.87;;
62798;SDS011;48842;51.046;13.796;2023-04-25T07:57:57;5.43;;;4.73;;
62798;SDS011;48842;51.046;13.796;2023-04-25T08:00:22;11.17;;;4.60;;
62798;SDS011;48842;51.046;13.796;2023-04-25T08:02:48;5.20;;;4.70;;
62798;SDS011;48842;51.046;13.796;2023-04-25T08:05:13;5.00;;;4.03;;
62798;SDS011;48842;51.046;13.796;2023-04-25T08:07:40;5.23;;;4.13;;
62798;SDS011;48842;51.046;13.796;2023-04-25T08:10:06;5.93;;;4.13;;
62798;SDS011;48842;51.046;13.796;2023-04-25T08:12:32;9.77;;;4.43;;
62798;SDS011;48842;51.046;13.796;2023-04-25T08:14:57;13.50;;;4.90;;
62798;SDS011;48842;51.046;13.796;2023-04-25T08:17:23;4.50;;;3.27;;
62798;SDS011;48842;51.046;13.796;2023-04-25T08:19:48;6.90;;;4.47;;
62798;SDS011;48842;51.046;13.796;2023-04-25T08:22:14;5.80;;;4.50;;
62798;SDS011;48842;51.046;13.796;2023-04-25T08:24:39;5.60;;;3.23;;
62798;SDS011;48842;51.046;13.796;2023-04-25T08:27:04;3.57;;;3.27;;
62798;SDS011;48842;51.046;13.796;2023-04-25T08:29:31;6.87;;;3.27;;
62798;SDS011;48842;51.046;13.796;2023-04-25T08:31:56;4.53;;;4.13;;
62798;SDS011;48842;51.046;13.796;2023-04-25T08:34:22;5.63;;;3.97;;
62798;SDS011;48842;51.046;13.796;2023-04-25T08:36:47;4.77;;;3.00;;
62798;SDS011;48842;51.046;13.796;2023-04-25T08:39:12;5.17;;;3.00;;
62798;SDS011;48842;51.046;13.796;2023-04-25T08:41:38;4.73;;;3.57;;
62798;SDS011;48842;51.046;13.796;2023-04-25T08:44:03;5.73;;;2.97;;
62798;SDS011;48842;51.046;13.796;2023-04-25T08:46:30;7.10;;;3.03;;
62798;SDS011;48842;51.046;13.796;2023-04-25T08:48:57;3.37;;;3.07;;
62798;SDS011;48842;51.046;13.796;2023-04-25T08:51:25;6.63;;;3.07;;
62798;SDS011;48842;51.046;13.796;2023-04-25T08:53:52;6.50;;;3.77;;
62798;SDS011;48842;51.046;13.796;2023-04-25T08:56:18;4.23;;;3.27;;
62798;SDS011;48842;51.046;13.796;2023-04-25T08:58:47;4.37;;;3.80;;
62798;SDS011;48842;51.046;13.796;2023-04-25T09:01:13;5.30;;;3.77;;
62798;SDS011;48842;51.046;13.796;2023-04-25T09:03:39;6.80;;;4.10;;
62798;SDS011;48842;51.046;13.796;2023-04-25T09:06:04;4.30;;;3.90;;
62798;SDS011;48842;51.046;13.796;2023-04-25T09:08:30;8.13;;;4.50;;
62798;SDS011;48842;51.046;13.796;2023-04-25T09:10:55;6.80;;;4.67;;
62798;SDS011;48842;51.046;13.796;2023-04-25T09:13:25;7.07;;;4.03;;
62798;SDS011;48842;51.046;13.796;2023-04-25T09:15:55;5.40;;;4.90;;
62798;SDS011;48842;51.046;13.796;2023-04-25T09:18:25;4.27;;;3.80;;
62798;SDS011;48842;51.046;13.796;2023-04-25T09:20:52;5.27;;;3.50;;
62798;SDS011;48842;51.046;13.796;2023-04-25T09:23:19;9.83;;;3.47;;
62798;SDS011;48842;51.046;13.796;2023-04-25T09:25:47;10.43;;;4.83;;
62798;SDS011;48842;51.046;13.796;2023-04-25T09:28:12;3.90;;;3.50;;
62798;SDS011;48842;51.046;13.796;2023-04-25T09:30:38;4.20;;;3.80;;
62798;SDS011;48842;51.046;13.796;2023-04-25T09:33:07;7.60;;;4.80;;
62798;SDS011;48842;51.046;13.796;2023-04-25T09:35:37;10.07;;;5.10;;
62798;SDS011;48842;51.046;13.796;2023-04-25T09:38:22;5.37;;;4.80;;
62798;SDS011;48842;51.046;13.796;2023-04-25T09:40:48;8.00;;;3.10;;
62798;SDS011;48842;51.046;13.796;2023-04-25T09:43:20;5.23;;;3.73;;
62798;SDS011;48842;51.046;13.796;2023-04-25T09:45:47;4.47;;;4.00;;
62798;SDS011;48842;51.046;13.796;2023-04-25T09:48:21;4.80;;;4.30;;
62798;SDS011;48842;51.046;13.796;2023-04-25T09:53:41;5.67;;;5.10;;
62798;SDS011;48842;51.046;13.796;2023-04-25T09:56:08;7.63;;;5.30;;
62798;SDS011;48842;51.046;13.796;2023-04-25T09:58:35;6.40;;;4.40;;
62798;SDS011;48842;51.046;13.796;2023-04-25T10:01:05;4.70;;;4.30;;
62798;SDS011;48842;51.046;13.796;2023-04-25T10:03:35;9.30;;;5.37;;
62798;SDS011;48842;51.046;13.796;2023-04-25T10:06:09;6.83;;;5.33;;
62798;SDS011;48842;51.046;13.796;2023-04-25T10:08:39;7.53;;;5.50;;
62798;SDS011;48842;51.046;13.796;2023-04-25T10:11:05;5.60;;;5.07;;
62798;SDS011;48842;51.046;13.796;2023-04-25T10:13:33;5.23;;;4.70;;
62798;SDS011;48842;51.046;13.796;2023-04-25T10:15:59;7.17;;;4.80;;
62798;SDS011;48842;51.046;13.796;2023-04-25T10:18:26;5.97;;;4.13;;
62798;SDS011;48842;51.046;13.796;2023-04-25T10:21:02;12.97;;;4.87;;
62798;SDS011;48842;51.046;13.796;2023-04-25T10:23:29;7.30;;;4.90;;
62798;SDS011;48842;51.046;13.796;2023-04-25T10:25:56;5.10;;;4.17;;
62798;SDS011;48842;51.046;13.796;2023-04-25T10:28:22;6.07;;;4.30;;
62798;SDS011;48842;51.046;13.796;2023-04-25T10:31:03;5.83;;;3.87;;
62798;SDS011;48842;51.046;13.796;2023-04-25T10:36:15;4.80;;;3.97;;
62798;SDS011;48842;51.046;13.796;2023-04-25T10:38:43;5.90;;;4.30;;
62798;SDS011;48842;51.046;13.796;2023-04-25T10:41:10;6.20;;;3.87;;
62798;SDS011;48842;51.046;13.796;2023-04-25T10:43:40;3.90;;;3.60;;
62798;SDS011;48842;51.046;13.796;2023-04-25T10:46:23;4.43;;;3.83;;
62798;SDS011;48842;51.046;13.796;2023-04-25T10:51:31;6.77;;;4.10;;
62798;SDS011;48842;51.046;13.796;2023-04-25T10:56:48;9.23;;;4.60;;
62798;SDS011;48842;51.046;13.796;2023-04-25T10:59:17;7.30;;;4.73;;
62798;SDS011;48842;51.046;13.796;2023-04-25T11:01:44;11.07;;;4.53;;
62798;SDS011;48842;51.046;13.796;2023-04-25T11:04:20;6.13;;;5.50;;
62798;SDS011;48842;51.046;13.796;2023-04-25T11:07:02;5.10;;;4.70;;
62798;SDS011;48842;51.046;13.796;2023-04-25T11:09:28;8.33;;;6.10;;
62798;SDS011;48842;51.046;13.796;2023-04-25T11:11:55;8.10;;;4.83;;
62798;SDS011;48842;51.046;13.796;2023-04-25T11:14:21;9.57;;;5.97;;
62798;SDS011;48842;51.046;13.796;2023-04-25T11:16:52;12.20;;;6.73;;
62798;SDS011;48842;51.046;13.796;2023-04-25T11:19:19;13.63;;;5.77;;
62798;SDS011;48842;51.046;13.796;2023-04-25T11:21:45;7.77;;;5.57;;
62798;SDS011;48842;51.046;13.796;2023-04-25T11:24:10;15.47;;;5.30;;
62798;SDS011;48842;51.046;13.796;2023-04-25T11:26:36;7.33;;;6.33;;
62798;SDS011;48842;51.046;13.796;2023-04-25T11:29:02;8.53;;;5.63;;
62798;SDS011;48842;51.046;13.796;2023-04-25T11:31:28;7.23;;;4.23;;
62798;SDS011;48842;51.046;13.796;2023-04-25T11:33:54;8.07;;;4.10;;
62798;SDS011;48842;51.046;13.796;2023-04-25T11:36:22;10.53;;;5.00;;
62798;SDS011;48842;51.046;13.796;2023-04-25T11:38:49;9.43;;;4.23;;
62798;SDS011;48842;51.046;13.796;2023-04-25T11:41:16;5.73;;;3.30;;
62798;SDS011;48842;51.046;13.796;2023-04-25T11:43:42;4.67;;;3.40;;
62798;SDS011;48842;51.046;13.796;2023-04-25T11:46:08;8.60;;;3.43;;
62798;SDS011;48842;51.046;13.796;2023-04-25T11:48:36;6.07;;;3.20;;
62798;SDS011;48842;51.046;13.796;2023-04-25T11:51:05;7.37;;;2.90;;
62798;SDS011;48842;51.046;13.796;2023-04-25T11:53:31;2.47;;;2.10;;
62798;SDS011;48842;51.046;13.796;2023-04-25T11:55:56;3.47;;;1.50;;
62798;SDS011;48842;51.046;13.796;2023-04-25T11:58:22;1.83;;;1.50;;
62798;SDS011;48842;51.046;13.796;2023-04-25T12:00:47;4.47;;;1.90;;
62798;SDS011;48842;51.046;13.796;2023-04-25T12:03:12;4.90;;;1.93;;
62798;SDS011;48842;51.046;13.796;2023-04-25T12:05:38;2.10;;;1.90;;
62798;SDS011;48842;51.046;13.796;2023-04-25T12:08:14;3.73;;;1.77;;
62798;SDS011;48842;51.046;13.796;2023-04-25T12:10:42;5.87;;;1.90;;
62798;SDS011;48842;51.046;13.796;2023-04-25T12:13:21;3.47;;;1.93;;
62798;SDS011;48842;51.046;13.796;2023-04-25T12:15:48;7.87;;;2.70;;
62798;SDS011;48842;51.046;13.796;2023-04-25T12:18:13;5.40;;;2.73;;
62798;SDS011;48842;51.046;13.796;2023-04-25T12:20:39;4.30;;;2.60;;
62798;SDS011;48842;51.046;13.796;2023-04-25T12:23:06;15.77;;;3.20;;
62798;SDS011;48842;51.046;13.796;2023-04-25T12:25:36;3.80;;;2.63;;
62798;SDS011;48842;51.046;13.796;2023-04-25T12:33:27;9.40;;;4.20;;
62798;SDS011;48842;51.046;13.796;2023-04-25T12:35:54;11.87;;;2.93;;
62798;SDS011;48842;51.046;13.796;2023-04-25T12:38:28;14.87;;;3.70;;
62798;SDS011;48842;51.046;13.796;2023-04-25T12:40:55;6.57;;;3.00;;
62798;SDS011;48842;51.046;13.796;2023-04-25T12:43:21;15.07;;;3.93;;
62798;SDS011;48842;51.046;13.796;2023-04-25T12:45:47;8.93;;;3.40;;
62798;SDS011;48842;51.046;13.796;2023-04-25T12:48:14;12.50;;;4.17;;
62798;SDS011;48842;51.046;13.796;2023-04-25T12:50:39;8.70;;;3.80;;
62798;SDS011;48842;51.046;13.796;2023-04-25T12:53:04;12.33;;;3.57;;
62798;SDS011;48842;51.046;13.796;2023-04-25T12:55:29;8.13;;;3.40;;
62798;SDS011;48842;51.046;13.796;2023-04-25T12:57:55;7.43;;;3.60;;
62798;SDS011;48842;51.046;13.796;2023-04-25T13:00:20;9.90;;;3.87;;
62798;SDS011;48842;51.046;13.796;2023-04-25T13:02:45;13.67;;;3.90;;
62798;SDS011;48842;51.046;13.796;2023-04-25T13:05:13;5.20;;;3.27;;
62798;SDS011;48842;51.046;13.796;2023-04-25T13:07:39;9.50;;;3.60;;
62798;SDS011;48842;51.046;13.796;2023-04-25T13:10:04;9.80;;;3.60;;
62798;SDS011;48842;51.046;13.796;2023-04-25T13:12:30;13.40;;;4.20;;
62798;SDS011;48842;51.046;13.796;2023-04-25T13:14:56;12.73;;;4.10;;
62798;SDS011;48842;51.046;13.796;2023-04-25T13:17:21;12.83;;;4.50;;
62798;SDS011;48842;51.046;13.796;2023-04-25T13:19:46;12.30;;;4.03;;
62798;SDS011;48842;51.046;13.796;2023-04-25T13:22:12;8.00;;;3.77;;
62798;SDS011;48842;51.046;13.796;2023-04-25T13:24:40;14.77;;;4.90;;
62798;SDS011;48842;51.046;13.796;2023-04-25T13:27:05;16.80;;;4.53;;
62798;SDS011;48842;51.046;13.796;2023-04-25T13:29:31;14.67;;;4.60;;
62798;SDS011;48842;51.046;13.796;2023-04-25T13:31:56;16.03;;;5.50;;
62798;SDS011;48842;51.046;13.796;2023-04-25T13:34:21;12.63;;;4.70;;
62798;SDS011;48842;51.046;13.796;2023-04-25T13:36:47;11.33;;;4.43;;
62798;SDS011;48842;51.046;13.796;2023-04-25T13:39:12;9.87;;;4.90;;
62798;SDS011;48842;51.046;13.796;2023-04-25T13:41:37;19.17;;;6.40;;
62798;SDS011;48842;51.046;13.796;2023-04-25T13:44:02;11.20;;;4.57;;
62798;SDS011;48842;51.046;13.796;2023-04-25T13:46:28;12.87;;;4.53;;
62798;SDS011;48842;51.046;13.796;2023-04-25T13:48:54;11.17;;;4.10;;
62798;SDS011;48842;51.046;13.796;2023-04-25T13:51:19;11.80;;;3.90;;
62798;SDS011;48842;51.046;13.796;2023-04-25T13:53:45;11.73;;;4.50;;
62798;SDS011;48842;51.046;13.796;2023-04-25T13:56:10;9.13;;;3.83;;
62798;SDS011;48842;51.046;13.796;2023-04-25T13:58:36;15.53;;;4.40;;
62798;SDS011;48842;51.046;13.796;2023-04-25T14:01:01;14.00;;;4.33;;
62798;SDS011;48842;51.046;13.796;2023-04-25T14:03:28;25.73;;;5.23;;
62798;SDS011;48842;51.046;13.796;2023-04-25T14:05:53;19.57;;;4.40;;
62798;SDS011;48842;51.046;13.796;2023-04-25T14:08:18;14.80;;;4.77;;
62798;SDS011;48842;51.046;13.796;2023-04-25T14:10:43;9.87;;;4.77;;
62798;SDS011;48842;51.046;13.796;2023-04-25T14:13:09;9.73;;;4.53;;
62798;SDS011;48842;51.046;13.796;2023-04-25T14:15:34;13.20;;;4.17;;
62798;SDS011;48842;51.046;13.796;2023-04-25T14:18:00;8.37;;;4.10;;
62798;SDS011;48842;51.046;13.796;2023-04-25T14:20:26;10.73;;;3.90;;
62798;SDS011;48842;51.046;13.796;2023-04-25T14:22:51;10.07;;;4.57;;
62798;SDS011;48842;51.046;13.796;2023-04-25T14:25:18;14.13;;;3.53;;
62798;SDS011;48842;51.046;13.796;2023-04-25T14:27:44;10.97;;;4.30;;
62798;SDS011;48842;51.046;13.796;2023-04-25T14:30:12;12.93;;;4.37;;
62798;SDS011;48842;51.046;13.796;2023-04-25T14:32:37;10.27;;;3.50;;
62798;SDS011;48842;51.046;13.796;2023-04-25T14:35:03;8.07;;;3.80;;
62798;SDS011;48842;51.046;13.796;2023-04-25T14:37:28;21.20;;;3.60;;
62798;SDS011;48842;51.046;13.796;2023-04-25T14:39:53;11.70;;;4.10;;
62798;SDS011;48842;51.046;13.796;2023-04-25T14:42:19;15.13;;;5.40;;